メインページ
METAR-TAF:

METAR-TAF

空港 :

アドルフォ・スアレス・マドリード=バラハス空港

マドリード, スペイン

緯度: 40-27N, 経度: 003-33W, 海抜: 609m

現時点の気象観測

当レポートは32分前の06:00(UTC)に作成
の風 3kt
気温 11°C
湿度 100%
気圧 1022 hPa
視程10km以上
1,500メートル以下は雲なし、積乱雲なし

METAR: LEMD 220600Z 36003KT CAVOK 11/11 Q1022 NOSIG

時間: 08:32 (06:32 UTC)

予報

当レポートは1時間32分前の05:00(UTC)に作成
予報は22日の 06時(UTC)から 23日の 12時(UTC)まで有効
変向風 3kt
視程10km以上
1,500メートル以下は雲なし、積乱雲なし
22日の 12時(UTC)から 22日の 24時(UTC)まで一時的に
北東の風 10kt

TAF: LEMD 220500Z 2206/2312 VRB03KT CAVOK TX24/2214Z TN11/2207Z TEMPO 2212/2224 04010KT

4,000以上の空港の気象観測と天気予報(METAR報とTAF報)

利用可能な観測所は地図上に黄色い丸と赤い丸で示す。

丸の上にカーソルを重ねると観測所名を参照できる。

次にクリックすると気象観測と天気予報を参照できる。

マップの切り替え:黒色「×」印の緑ボタンをクリックして拡大、「-」印の緑ボタンをクリックして縮小、緑色の三角印をクリックして隣りの地図に切り替え


METAR-TAF: